createdAt,value
2023-02-27T00:14:02.351Z,0
2023-02-27T00:29:25.673Z,0
2023-02-27T00:44:48.986Z,0
2023-02-27T01:00:12.311Z,0
2023-02-27T01:15:35.628Z,0
2023-02-27T01:30:58.943Z,0
2023-02-27T01:46:22.261Z,0
2023-02-27T02:01:45.563Z,0
2023-02-27T02:17:08.888Z,0
2023-02-27T02:32:32.204Z,0
2023-02-27T02:47:55.532Z,0
2023-02-27T03:03:17.845Z,0
2023-02-27T03:18:41.159Z,0
2023-02-27T03:34:04.483Z,0
2023-02-27T03:49:27.789Z,0
2023-02-27T04:04:51.106Z,0
2023-02-27T04:20:14.416Z,0
2023-02-27T04:35:37.743Z,0
2023-02-27T04:51:00.080Z,0
2023-02-27T05:06:22.391Z,0
2023-02-27T05:21:44.748Z,0
2023-02-27T05:52:30.304Z,0
2023-02-27T06:07:52.592Z,0
2023-02-27T06:23:14.879Z,0
2023-02-27T06:38:38.141Z,5
2023-02-27T06:54:01.422Z,11
2023-02-27T07:09:24.676Z,16
2023-02-27T07:24:47.951Z,16
2023-02-27T07:40:11.214Z,22
2023-02-27T07:55:34.502Z,28
2023-02-27T08:10:57.765Z,33
2023-02-27T08:26:21.026Z,33
2023-02-27T08:41:44.296Z,39
2023-02-27T08:57:07.565Z,50
2023-02-27T09:12:30.829Z,50
2023-02-27T09:27:53.117Z,101
2023-02-27T09:43:16.386Z,95
2023-02-27T09:58:39.639Z,67
2023-02-27T10:14:02.910Z,84
2023-02-27T10:15:26.322Z,84
2023-02-27T10:30:49.586Z,112
2023-02-27T10:46:12.848Z,118
2023-02-27T11:01:36.117Z,90
2023-02-27T11:16:58.412Z,157
2023-02-27T11:32:20.678Z,146
2023-02-27T11:47:42.966Z,118
2023-02-27T12:03:05.254Z,90
2023-02-27T12:18:28.491Z,348
2023-02-27T12:33:51.764Z,90
2023-02-27T12:49:15.010Z,95
2023-02-27T13:04:38.297Z,16
2023-02-27T13:20:01.546Z,73
2023-02-27T13:35:24.818Z,28
2023-02-27T13:36:48.233Z,22
2023-02-27T13:52:11.488Z,50
2023-02-27T13:53:34.891Z,56
2023-02-27T14:08:58.148Z,106
2023-02-27T14:24:21.428Z,90
2023-02-27T14:39:44.672Z,22
2023-02-27T14:55:06.965Z,11
2023-02-27T15:10:30.219Z,11
2023-02-27T15:25:53.491Z,16
2023-02-27T15:41:16.743Z,11
2023-02-27T15:56:39.996Z,11
2023-02-27T16:12:03.277Z,0
2023-02-27T16:27:26.534Z,0
2023-02-27T16:42:48.830Z,0
2023-02-27T16:58:11.097Z,0
2023-02-27T17:13:34.402Z,0
2023-02-27T17:28:57.721Z,0
2023-02-27T17:44:21.040Z,0
2023-02-27T17:59:44.346Z,0
2023-02-27T18:15:07.647Z,0
2023-02-27T18:30:30.969Z,0
2023-02-27T18:45:54.273Z,0
2023-02-27T19:01:17.578Z,0
2023-02-27T19:16:40.890Z,0
2023-02-27T19:32:04.192Z,0
2023-02-27T19:47:27.506Z,0
2023-02-27T20:02:50.821Z,0
2023-02-27T20:18:13.141Z,0
2023-02-27T20:33:36.467Z,0
2023-02-27T20:48:59.766Z,0
2023-02-27T21:04:23.087Z,0
2023-02-27T21:19:46.394Z,0
2023-02-27T21:35:09.702Z,0
2023-02-27T21:50:33.013Z,0
2023-02-27T22:05:55.350Z,0
2023-02-27T22:21:17.672Z,0
2023-02-27T22:36:40.983Z,0
2023-02-27T22:52:04.290Z,0
2023-02-27T23:07:27.610Z,0
2023-02-27T23:22:50.908Z,0
2023-02-27T23:38:14.212Z,0
2023-02-27T23:53:37.528Z,0
